Time;durP1;ratioP1;P1;durP2;ratioP2;P2;SDS_P1;SDS_P2;PMS_P1;PMS_P2;Temp;Humidity;BMP_temperature;BMP_pressure;BME280_temperature;BME280_humidity;BME280_pressure;Samples;Min_cycle;Max_cycle;Signal;HPM_P1;HPM_P2
2022/09/26 00:01:31;;;;;;;5.77;2.10;;;17.30;99.90;;;;;;5034016;28;20193;-68
2022/09/26 00:04:02;;;;;;;3.87;1.80;;;17.30;99.90;;;;;;5034171;28;20219;-68
2022/09/26 00:06:29;;;;;;;5.37;2.33;;;17.30;99.90;;;;;;5033751;28;20254;-69
2022/09/26 00:08:57;;;;;;;6.77;2.10;;;17.30;99.90;;;;;;5033786;28;20193;-69
2022/09/26 00:11:27;;;;;;;5.20;1.57;;;17.30;99.90;;;;;;5033817;28;20193;-69
2022/09/26 00:13:58;;;;;;;3.80;1.67;;;17.40;99.90;;;;;;5040390;28;20196;-70
2022/09/26 00:16:26;;;;;;;8.33;2.03;;;17.60;99.90;;;;;;5036917;28;20192;-69
2022/09/26 00:18:57;;;;;;;5.13;1.80;;;17.60;99.90;;;;;;5033606;28;20343;-68
2022/09/26 00:21:28;;;;;;;5.03;2.07;;;17.80;99.90;;;;;;5033930;28;20177;-68
2022/09/26 00:23:56;;;;;;;4.53;1.63;;;17.90;99.90;;;;;;5033963;28;20173;-71
2022/09/26 00:26:25;;;;;;;8.17;2.10;;;17.90;99.90;;;;;;5033373;28;20540;-68
2022/09/26 00:28:53;;;;;;;2.73;1.60;;;18.00;99.90;;;;;;5033700;28;20169;-68
2022/09/26 00:31:34;;;;;;;7.93;1.70;;;17.90;99.90;;;;;;5033474;28;20239;-67
2022/09/26 00:34:01;;;;;;;5.80;1.80;;;17.90;99.90;;;;;;5033773;28;20638;-68
2022/09/26 00:36:30;;;;;;;2.13;1.57;;;18.00;99.90;;;;;;5033292;28;20241;-67
2022/09/26 00:38:57;;;;;;;4.03;1.60;;;18.10;99.90;;;;;;5033182;28;20642;-68
2022/09/26 00:41:24;;;;;;;3.13;1.60;;;18.00;99.90;;;;;;5033373;28;20224;-68
2022/09/26 00:43:55;;;;;;;2.77;1.43;;;18.10;99.90;;;;;;5033339;28;20173;-67
2022/09/26 00:46:34;;;;;;;3.33;1.40;;;18.30;99.90;;;;;;5032944;28;20665;-68
2022/09/26 00:49:22;;;;;;;4.93;1.20;;;18.30;99.90;;;;;;5023338;28;20192;-67
2022/09/26 00:52:01;;;;;;;4.27;1.60;;;18.30;99.90;;;;;;5031178;28;20684;-68
2022/09/26 00:54:31;;;;;;;3.73;1.97;;;18.40;99.90;;;;;;5032460;28;20180;-68
2022/09/26 00:57:04;;;;;;;4.13;1.57;;;18.50;99.90;;;;;;5029332;28;20184;-68
2022/09/26 00:59:42;;;;;;;4.90;1.50;;;18.60;99.90;;;;;;5032997;28;20216;-68
2022/09/26 01:02:10;;;;;;;2.17;1.23;;;18.80;99.90;;;;;;5032582;28;20181;-67
2022/09/26 01:04:41;;;;;;;5.10;1.97;;;18.90;99.90;;;;;;5033059;28;20169;-67
2022/09/26 01:07:17;;;;;;;6.17;1.83;;;19.10;99.90;;;;;;5032905;28;20223;-69
2022/09/26 01:09:46;;;;;;;5.37;2.40;;;19.30;99.90;;;;;;5032688;28;20197;-68
2022/09/26 01:12:15;;;;;;;4.03;2.17;;;19.60;99.90;;;;;;5032865;28;20173;-68
2022/09/26 01:14:43;;;;;;;3.40;1.80;;;19.80;99.90;;;;;;5032527;28;20189;-68
2022/09/26 01:17:12;;;;;;;2.73;1.90;;;19.90;99.90;;;;;;5032847;28;20239;-68
2022/09/26 01:19:48;;;;;;;3.63;1.70;;;19.90;99.90;;;;;;5032049;28;20695;-68
2022/09/26 01:22:45;;;;;;;4.53;1.60;;;19.90;99.90;;;;;;5025513;28;20186;-67
2022/09/26 01:25:22;;;;;;;2.03;1.50;;;19.80;99.90;;;;;;5031469;28;20248;-69
2022/09/26 01:28:09;;;;;;;4.30;1.63;;;19.80;99.90;;;;;;5025508;28;20236;-68
2022/09/26 01:31:19;;;;;;;4.80;1.60;;;19.70;99.90;;;;;;5011431;28;20255;-67
2022/09/26 01:34:23;;;;;;;3.87;1.57;;;19.60;99.90;;;;;;5002270;28;20198;-67
2022/09/26 01:37:18;;;;;;;4.03;1.47;;;19.80;99.90;;;;;;5030748;28;20273;-68
2022/09/26 01:40:17;;;;;;;4.60;1.70;;;20.10;99.90;;;;;;5033259;28;20205;-69
2022/09/26 01:43:07;;;;;;;8.93;1.97;;;20.20;99.90;;;;;;5019672;28;20659;-67
2022/09/26 01:46:01;;;;;;;7.37;1.77;;;20.00;99.90;;;;;;5002421;28;20233;-69
2022/09/26 01:48:53;;;;;;;3.90;1.60;;;20.20;99.90;;;;;;5031258;28;20281;-68
2022/09/26 01:51:37;;;;;;;7.13;1.80;;;20.40;99.90;;;;;;5031912;28;20219;-67
2022/09/26 01:54:34;;;;;;;3.57;1.67;;;20.80;99.90;;;;;;5032959;28;20536;-69
2022/09/26 01:57:04;;;;;;;3.47;1.67;;;21.40;99.90;;;;;;5019228;28;20173;-69
2022/09/26 01:59:44;;;;;;;4.97;1.77;;;22.00;99.90;;;;;;5033908;28;20789;-70
2022/09/26 02:02:24;;;;;;;7.07;1.83;;;22.00;99.90;;;;;;5033859;28;20196;-68
2022/09/26 02:05:15;;;;;;;4.63;1.53;;;22.30;99.90;;;;;;5033787;28;20580;-67
2022/09/26 02:08:09;;;;;;;7.27;1.90;;;22.80;99.90;;;;;;5034124;28;20180;-69
2022/09/26 02:10:44;;;;;;;7.23;2.40;;;22.80;99.90;;;;;;5034115;28;20267;-69
2022/09/26 02:13:19;;;;;;;7.53;2.17;;;22.80;99.90;;;;;;5034533;28;20230;-69
2022/09/26 02:15:52;;;;;;;5.23;2.23;;;22.80;99.90;;;;;;5033315;28;20196;-69
2022/09/26 02:18:36;;;;;;;5.40;2.10;;;23.00;99.90;;;;;;5034153;28;20559;-71
2022/09/26 02:21:15;;;;;;;5.20;1.90;;;23.30;99.90;;;;;;5033448;28;20258;-69
2022/09/26 02:23:43;;;;;;;6.70;1.90;;;22.40;99.90;;;;;;5034134;28;20178;-69
2022/09/26 02:26:10;;;;;;;4.87;1.90;;;21.60;99.90;;;;;;5033911;28;20211;-69
2022/09/26 02:28:38;;;;;;;7.27;2.70;;;21.50;99.90;;;;;;5033485;28;20205;-70
2022/09/26 02:31:07;;;;;;;5.73;1.60;;;21.90;99.90;;;;;;5033434;28;20215;-70
2022/09/26 02:33:35;;;;;;;7.07;2.37;;;22.60;99.90;;;;;;5032469;28;20626;-68
2022/09/26 02:36:07;;;;;;;4.07;2.10;;;23.00;99.90;;;;;;5033413;28;20187;-69
2022/09/26 02:38:36;;;;;;;7.63;2.03;;;23.30;99.90;;;;;;5032430;28;20188;-68
2022/09/26 02:41:25;;;;;;;9.77;2.00;;;23.60;99.90;;;;;;5032194;28;20221;-70
2022/09/26 02:43:52;;;;;;;9.97;2.33;;;23.80;99.90;;;;;;5033402;28;20206;-69
2022/09/26 02:46:38;;;;;;;8.30;2.40;;;24.00;99.90;;;;;;5033446;28;20849;-68
2022/09/26 02:49:15;;;;;;;12.63;2.87;;;23.50;99.90;;;;;;5021552;28;20660;-67
2022/09/26 02:52:09;;;;;;;4.97;2.50;;;22.90;99.90;;;;;;5032197;28;20180;-68
2022/09/26 02:54:56;;;;;;;5.83;2.07;;;22.10;99.90;;;;;;5032352;28;20176;-68
2022/09/26 02:57:26;;;;;;;8.67;2.23;;;21.90;99.90;;;;;;5031300;28;20245;-68
2022/09/26 03:00:10;;;;;;;6.20;2.50;;;21.60;99.90;;;;;;5031905;28;20216;-69
2022/09/26 03:03:14;;;;;;;9.30;2.90;;;21.60;99.90;;;;;;5035350;28;20188;-67
2022/09/26 03:05:45;;;;;;;4.57;2.47;;;21.50;99.90;;;;;;5005456;28;20197;-68
2022/09/26 03:08:23;;;;;;;7.10;2.57;;;21.60;99.90;;;;;;5029248;28;20176;-68
2022/09/26 03:10:52;;;;;;;7.17;2.77;;;21.60;99.90;;;;;;5030014;28;20640;-67
2022/09/26 03:13:21;;;;;;;7.03;3.40;;;21.90;99.90;;;;;;5036069;28;20185;-68
2022/09/26 03:15:55;;;;;;;4.80;2.60;;;22.40;99.90;;;;;;5035029;28;20294;-67
2022/09/26 03:18:27;;;;;;;11.13;2.93;;;23.10;99.90;;;;;;5035003;28;20188;-68
2022/09/26 03:20:55;;;;;;;11.40;2.80;;;23.20;99.90;;;;;;5034660;28;20286;-69
2022/09/26 03:23:24;;;;;;;8.83;3.00;;;23.40;99.90;;;;;;5035304;28;20172;-69
2022/09/26 03:26:12;;;;;;;6.80;2.73;;;24.10;99.90;;;;;;5035142;28;20196;-69
2022/09/26 03:28:40;;;;;;;10.10;3.23;;;24.20;99.90;;;;;;5035460;28;20208;-68
2022/09/26 03:31:08;;;;;;;6.03;2.37;;;23.90;99.90;;;;;;5033986;28;20642;-68
2022/09/26 03:33:35;;;;;;;5.07;2.40;;;23.90;99.90;;;;;;5035473;28;20227;-69
2022/09/26 03:36:09;;;;;;;6.17;2.47;;;23.90;99.90;;;;;;5035388;28;20177;-68
2022/09/26 03:38:36;;;;;;;8.23;2.73;;;24.00;99.90;;;;;;5036567;28;20276;-68
2022/09/26 03:41:04;;;;;;;8.67;2.70;;;24.10;99.90;;;;;;5045592;28;20209;-69
2022/09/26 03:43:32;;;;;;;5.13;2.10;;;23.80;99.90;;;;;;5060150;28;20164;-68
2022/09/26 03:46:03;;;;;;;4.73;2.43;;;23.60;99.90;;;;;;5058584;28;20188;-69
2022/09/26 03:48:31;;;;;;;8.40;3.63;;;23.70;99.90;;;;;;5035309;28;20195;-69
2022/09/26 03:51:04;;;;;;;6.17;2.60;;;23.60;99.90;;;;;;5034735;28;20196;-68
2022/09/26 03:53:33;;;;;;;5.00;2.50;;;23.30;99.90;;;;;;5033881;28;20190;-68
2022/09/26 03:56:18;;;;;;;4.20;2.60;;;22.80;99.90;;;;;;5035231;28;20192;-70
2022/09/26 03:58:47;;;;;;;7.30;2.87;;;23.40;99.90;;;;;;5035175;28;20196;-70
2022/09/26 04:01:18;;;;;;;10.53;3.17;;;23.20;99.90;;;;;;5034699;28;20230;-69
2022/09/26 04:03:47;;;;;;;8.07;2.67;;;22.50;99.90;;;;;;5034851;28;20185;-69
2022/09/26 04:06:18;;;;;;;4.67;2.60;;;22.10;99.90;;;;;;5034575;28;20643;-68
2022/09/26 04:08:48;;;;;;;7.17;3.03;;;21.30;99.90;;;;;;5035373;28;20201;-69
2022/09/26 04:11:18;;;;;;;7.13;2.63;;;21.40;99.90;;;;;;5036134;28;20713;-69
2022/09/26 04:13:47;;;;;;;3.53;2.37;;;21.50;99.90;;;;;;5035062;28;20204;-68
2022/09/26 04:16:15;;;;;;;7.43;2.70;;;21.60;99.90;;;;;;5017250;28;20216;-69
2022/09/26 04:18:42;;;;;;;30.47;4.37;;;21.70;99.90;;;;;;5033751;28;20308;-67
2022/09/26 04:21:14;;;;;;;21.63;4.67;;;21.90;99.90;;;;;;5034592;28;20228;-67
2022/09/26 04:23:43;;;;;;;8.20;2.40;;;22.10;99.90;;;;;;5034562;28;20181;-68
2022/09/26 04:26:14;;;;;;;10.80;3.13;;;22.70;99.90;;;;;;5033581;28;20191;-67
2022/09/26 04:28:43;;;;;;;4.77;2.40;;;23.10;99.90;;;;;;5033354;28;20185;-70
2022/09/26 04:31:14;;;;;;;8.17;2.80;;;22.90;99.90;;;;;;5034115;28;20201;-69
2022/09/26 04:33:41;;;;;;;8.73;2.70;;;22.80;99.90;;;;;;5032873;28;20178;-68
2022/09/26 04:36:11;;;;;;;5.00;2.40;;;22.60;99.90;;;;;;5032582;28;20179;-69
2022/09/26 04:38:40;;;;;;;4.83;2.67;;;22.50;99.90;;;;;;5033713;28;20173;-71
2022/09/26 04:41:12;;;;;;;19.17;5.17;;;22.70;99.90;;;;;;5033374;28;20258;-68
2022/09/26 04:43:40;;;;;;;4.97;2.63;;;23.10;99.90;;;;;;5033826;28;20282;-67
2022/09/26 04:46:10;;;;;;;7.70;3.00;;;23.20;99.90;;;;;;5033505;28;20235;-67
2022/09/26 04:48:38;;;;;;;4.00;2.50;;;23.10;99.90;;;;;;5033941;28;20235;-68
2022/09/26 04:51:07;;;;;;;4.70;2.30;;;23.30;99.90;;;;;;5033415;28;20183;-67
2022/09/26 04:53:37;;;;;;;6.20;2.90;;;23.40;99.90;;;;;;5033835;28;20536;-67
2022/09/26 04:56:09;;;;;;;30.00;5.83;;;23.60;99.90;;;;;;5033409;28;20177;-67
2022/09/26 04:58:42;;;;;;;5.57;2.50;;;23.50;99.90;;;;;;5031855;28;20201;-69
2022/09/26 05:01:15;;;;;;;4.43;2.40;;;23.50;99.90;;;;;;5033612;28;20778;-67
2022/09/26 05:03:43;;;;;;;3.50;2.40;;;23.40;99.90;;;;;;5033121;28;20602;-69
2022/09/26 05:06:12;;;;;;;8.13;3.17;;;23.40;99.90;;;;;;5033029;28;20185;-69
2022/09/26 05:08:41;;;;;;;4.67;2.73;;;23.20;99.90;;;;;;5033446;28;20182;-68
2022/09/26 05:11:09;;;;;;;4.77;2.40;;;23.10;99.90;;;;;;5033588;28;20187;-68
2022/09/26 05:13:37;;;;;;;7.70;2.87;;;23.20;99.90;;;;;;5033038;28;20188;-68
2022/09/26 05:16:09;;;;;;;6.03;2.80;;;23.30;99.90;;;;;;5032629;28;20189;-69
2022/09/26 05:18:38;;;;;;;10.40;3.83;;;23.30;99.90;;;;;;5033239;28;20303;-69
2022/09/26 05:21:06;;;;;;;5.83;2.37;;;23.20;99.90;;;;;;5030660;28;20231;-67
2022/09/26 05:26:38;;;;;;;3.47;2.53;;;23.20;99.90;;;;;;5033088;28;20650;-68
2022/09/26 05:29:06;;;;;;;6.30;2.90;;;23.40;99.90;;;;;;5033326;28;20242;-67
2022/09/26 05:31:36;;;;;;;4.83;2.60;;;23.40;99.90;;;;;;5031941;28;20562;-66
2022/09/26 05:34:11;;;;;;;5.33;2.70;;;23.20;99.90;;;;;;5033203;28;20195;-70
2022/09/26 05:36:41;;;;;;;6.20;2.77;;;23.20;99.90;;;;;;5031585;28;20194;-69
2022/09/26 05:41:54;;;;;;;5.33;2.67;;;22.90;99.90;;;;;;5033558;28;20187;-69
2022/09/26 05:44:22;;;;;;;5.80;3.03;;;22.70;99.90;;;;;;5033067;28;20906;-68
2022/09/26 05:46:50;;;;;;;45.67;8.10;;;23.00;99.90;;;;;;5033089;28;20177;-69
2022/09/26 05:49:20;;;;;;;16.23;3.20;;;23.20;99.90;;;;;;5032856;28;20653;-69
2022/09/26 05:51:48;;;;;;;7.27;2.70;;;23.50;99.90;;;;;;5033097;28;20342;-70
2022/09/26 05:54:15;;;;;;;8.87;2.50;;;23.80;99.90;;;;;;5032913;28;20192;-70
2022/09/26 05:56:42;;;;;;;12.60;3.03;;;23.80;99.90;;;;;;5033029;28;20663;-69
2022/09/26 05:59:10;;;;;;;8.60;2.60;;;23.60;99.90;;;;;;5032582;28;20276;-68
2022/09/26 06:01:39;;;;;;;10.13;3.10;;;23.40;99.90;;;;;;5032740;28;20197;-69
2022/09/26 06:04:06;;;;;;;12.67;3.07;;;23.20;99.90;;;;;;5032066;28;20204;-68
2022/09/26 06:06:34;;;;;;;4.20;2.40;;;23.00;99.90;;;;;;5032851;28;20661;-69
2022/09/26 06:09:02;;;;;;;10.90;3.10;;;22.50;99.90;;;;;;5033484;28;20653;-69
2022/09/26 06:11:30;;;;;;;5.97;2.50;;;22.10;99.90;;;;;;5033303;28;20650;-69
2022/09/26 06:14:01;;;;;;;5.63;2.30;;;22.00;99.90;;;;;;5032954;28;20214;-69
2022/09/26 06:16:29;;;;;;;4.17;2.33;;;21.80;99.90;;;;;;5027134;28;20188;-67
2022/09/26 06:18:57;;;;;;;8.47;1.83;;;21.60;99.90;;;;;;5031553;28;20648;-67
2022/09/26 06:21:24;;;;;;;7.10;2.43;;;21.40;99.90;;;;;;5015896;28;20213;-68
2022/09/26 06:23:52;;;;;;;4.87;1.83;;;21.40;99.90;;;;;;5032145;28;20261;-67
2022/09/26 06:26:23;;;;;;;6.60;2.30;;;21.30;99.90;;;;;;5033275;28;20224;-68
2022/09/26 06:29:01;;;;;;;4.50;2.30;;;21.20;99.90;;;;;;5031764;28;20188;-68
2022/09/26 06:31:29;;;;;;;7.80;2.60;;;21.40;99.90;;;;;;5032161;28;20650;-68
2022/09/26 06:33:57;;;;;;;11.33;2.17;;;21.50;99.90;;;;;;5032567;28;20261;-69
2022/09/26 06:36:25;;;;;;;6.13;2.80;;;21.60;99.90;;;;;;5032590;28;20550;-71
2022/09/26 06:38:54;;;;;;;4.03;1.90;;;21.50;99.90;;;;;;5036565;28;20280;-69
2022/09/26 06:41:23;;;;;;;4.90;2.20;;;21.50;99.90;;;;;;5036638;28;20275;-67
2022/09/26 06:43:51;;;;;;;8.20;1.90;;;21.30;99.90;;;;;;5036560;28;20216;-69
2022/09/26 06:46:19;;;;;;;7.10;2.27;;;21.20;99.90;;;;;;5036872;28;20689;-70
2022/09/26 06:48:47;;;;;;;10.00;2.23;;;20.90;99.90;;;;;;5036913;28;20181;-69
2022/09/26 06:51:14;;;;;;;10.50;2.83;;;20.60;99.90;;;;;;5036556;28;20196;-68
2022/09/26 06:53:44;;;;;;;5.47;2.00;;;20.40;99.90;;;;;;5036027;28;20247;-66
2022/09/26 06:56:12;;;;;;;8.80;2.50;;;20.30;99.90;;;;;;5035887;28;20189;-68
2022/09/26 06:58:40;;;;;;;5.13;2.30;;;20.10;99.90;;;;;;5035730;28;20276;-68
2022/09/26 07:01:09;;;;;;;2.67;2.00;;;20.00;99.90;;;;;;5035704;28;20603;-68
2022/09/26 07:03:37;;;;;;;13.27;4.00;;;19.90;99.90;;;;;;5035458;28;20322;-66
2022/09/26 07:06:04;;;;;;;10.67;3.37;;;19.80;99.90;;;;;;5036206;28;20188;-69
2022/09/26 07:08:32;;;;;;;5.53;2.73;;;19.70;99.90;;;;;;5036200;28;20187;-70
2022/09/26 07:11:02;;;;;;;6.67;2.47;;;19.60;99.90;;;;;;5037240;28;20315;-68
2022/09/26 07:13:30;;;;;;;7.03;2.40;;;19.60;99.90;;;;;;5036051;28;20193;-69
2022/09/26 07:15:58;;;;;;;7.13;3.00;;;19.50;99.90;;;;;;5035733;28;20238;-70
2022/09/26 07:18:27;;;;;;;8.60;2.60;;;19.40;99.90;;;;;;5035614;28;20200;-70
2022/09/26 07:20:55;;;;;;;3.93;2.13;;;19.30;99.90;;;;;;5036413;28;20229;-69
2022/09/26 07:23:22;;;;;;;6.50;2.40;;;19.10;99.90;;;;;;5034119;28;20181;-68
2022/09/26 07:25:51;;;;;;;7.50;2.83;;;19.10;99.90;;;;;;5035531;28;20555;-68
2022/09/26 07:28:19;;;;;;;6.70;2.40;;;19.10;99.90;;;;;;5036506;28;20417;-70
2022/09/26 07:30:46;;;;;;;6.53;2.50;;;19.10;99.90;;;;;;5051739;28;20189;-68
2022/09/26 07:33:14;;;;;;;18.93;3.10;;;19.00;99.90;;;;;;5056419;28;20178;-69
2022/09/26 07:35:44;;;;;;;6.63;2.43;;;19.00;99.90;;;;;;5045915;28;20186;-67
2022/09/26 07:38:12;;;;;;;3.67;2.37;;;18.90;99.90;;;;;;5034979;28;20197;-67
2022/09/26 07:40:42;;;;;;;7.20;2.83;;;18.90;99.90;;;;;;5035153;28;20216;-67
2022/09/26 07:43:09;;;;;;;9.07;2.60;;;18.80;99.90;;;;;;5034969;28;20254;-69
2022/09/26 07:51:10;;;;;;;5.07;2.60;;;18.50;99.90;;;;;;5036687;28;20323;-70
2022/09/26 07:53:40;;;;;;;5.77;2.83;;;18.50;99.90;;;;;;5030776;28;20197;-71
2022/09/26 07:56:11;;;;;;;17.17;3.03;;;18.40;99.90;;;;;;5038040;28;20181;-70
2022/09/26 07:58:41;;;;;;;3.67;2.43;;;18.40;99.90;;;;;;5037282;28;20709;-69
2022/09/26 08:01:11;;;;;;;5.83;2.47;;;18.30;99.90;;;;;;5037214;28;20296;-72
2022/09/26 08:03:46;;;;;;;5.40;2.87;;;18.30;99.90;;;;;;5035569;28;20173;-70
2022/09/26 08:06:18;;;;;;;5.87;2.27;;;18.20;99.90;;;;;;5037419;28;20181;-69
2022/09/26 08:08:47;;;;;;;4.77;2.83;;;18.20;99.90;;;;;;5037389;28;20248;-71
2022/09/26 08:11:17;;;;;;;4.00;2.83;;;18.20;99.90;;;;;;5039665;28;20185;-71
2022/09/26 08:13:46;;;;;;;4.20;2.67;;;18.20;99.90;;;;;;5038123;28;20242;-69
2022/09/26 08:16:24;;;;;;;11.20;3.13;;;18.10;99.90;;;;;;5040569;28;20185;-70
2022/09/26 08:18:53;;;;;;;4.60;2.60;;;18.10;99.90;;;;;;5040012;28;20232;-70
2022/09/26 08:21:22;;;;;;;7.30;2.80;;;18.10;99.90;;;;;;5039676;28;20217;-69
2022/09/26 08:23:49;;;;;;;6.27;2.57;;;18.00;99.90;;;;;;5037262;28;20181;-70
2022/09/26 08:26:20;;;;;;;5.17;2.17;;;18.00;99.90;;;;;;5036602;28;20189;-71
2022/09/26 08:28:48;;;;;;;7.67;3.00;;;18.00;99.90;;;;;;5037192;28;20188;-70
2022/09/26 08:31:17;;;;;;;7.30;2.63;;;17.90;99.90;;;;;;5036767;28;20266;-68
2022/09/26 08:33:44;;;;;;;8.10;2.60;;;17.90;99.90;;;;;;5019897;28;20180;-70
2022/09/26 08:36:15;;;;;;;7.83;2.37;;;17.90;99.90;;;;;;5035840;28;20653;-69
2022/09/26 08:38:42;;;;;;;4.83;2.40;;;17.80;99.90;;;;;;5029734;28;20188;-66
2022/09/26 08:41:49;;;;;;;7.27;2.90;;;17.80;99.90;;;;;;5024982;28;20225;-67
2022/09/26 08:44:41;;;;;;;5.07;2.47;;;17.80;99.90;;;;;;5026275;28;20705;-69
2022/09/26 08:47:39;;;;;;;11.43;3.50;;;17.70;99.90;;;;;;5022108;28;20193;-67
2022/09/26 08:50:16;;;;;;;5.40;2.87;;;17.70;99.90;;;;;;5020583;28;20187;-67
2022/09/26 08:52:56;;;;;;;9.63;3.10;;;17.70;99.90;;;;;;5034339;28;20243;-68
2022/09/26 08:55:31;;;;;;;4.67;2.93;;;17.70;99.90;;;;;;5035160;28;20188;-68
2022/09/26 08:58:15;;;;;;;4.17;2.47;;;17.60;99.90;;;;;;5034766;28;20173;-69
2022/09/26 09:00:43;;;;;;;7.93;2.87;;;17.60;99.90;;;;;;5034995;28;20236;-71
2022/09/26 09:03:40;;;;;;;7.33;2.80;;;17.60;99.90;;;;;;5037469;28;20185;-70
2022/09/26 09:06:14;;;;;;;7.17;3.23;;;17.50;99.90;;;;;;5037842;28;20185;-69
2022/09/26 09:08:50;;;;;;;7.97;3.07;;;17.50;99.90;;;;;;5037229;28;20707;-70
2022/09/26 09:11:50;;;;;;;6.87;3.33;;;17.50;99.90;;;;;;5035692;28;20184;-69
2022/09/26 09:14:38;;;;;;;8.30;2.30;;;17.50;99.90;;;;;;5004418;28;20201;-67
2022/09/26 09:17:21;;;;;;;5.87;2.87;;;17.50;99.90;;;;;;5035827;28;20212;-68
2022/09/26 09:20:00;;;;;;;6.47;2.90;;;17.50;99.90;;;;;;5035327;28;20260;-69
2022/09/26 09:22:39;;;;;;;4.73;3.07;;;17.40;99.90;;;;;;5036073;28;20208;-69
2022/09/26 09:25:22;;;;;;;10.67;4.80;;;17.40;99.90;;;;;;5034061;28;20187;-69
2022/09/26 09:28:12;;;;;;;5.63;3.33;;;17.50;99.90;;;;;;5037000;28;20200;-68
2022/09/26 09:31:00;;;;;;;4.83;2.90;;;17.40;99.90;;;;;;5032628;28;20733;-67
2022/09/26 09:33:37;;;;;;;5.30;3.10;;;17.40;99.90;;;;;;5032593;28;20226;-69
2022/09/26 09:36:10;;;;;;;3.70;2.90;;;17.40;99.90;;;;;;5025739;28;20172;-69
2022/09/26 09:38:40;;;;;;;5.83;2.90;;;17.40;99.90;;;;;;5031618;28;20595;-68
2022/09/26 09:41:22;;;;;;;6.23;2.87;;;17.40;99.90;;;;;;5036000;28;20228;-69
2022/09/26 09:43:54;;;;;;;4.70;3.07;;;17.30;99.90;;;;;;5036067;28;20184;-68
2022/09/26 09:46:29;;;;;;;6.60;3.30;;;17.30;99.90;;;;;;5035699;28;20207;-67
2022/09/26 09:49:09;;;;;;;9.30;3.37;;;17.20;99.90;;;;;;5014319;28;20678;-68
2022/09/26 09:52:04;;;;;;;11.20;3.50;;;17.10;99.90;;;;;;5031814;28;20193;-69
2022/09/26 09:54:58;;;;;;;7.03;3.30;;;17.00;99.90;;;;;;5035615;28;20192;-70
2022/09/26 09:57:49;;;;;;;7.27;3.50;;;17.00;99.90;;;;;;5037213;28;20188;-69
2022/09/26 10:00:22;;;;;;;7.40;3.50;;;16.90;99.90;;;;;;5037119;28;20560;-70
2022/09/26 10:03:10;;;;;;;9.33;4.17;;;16.80;99.90;;;;;;5031580;28;20210;-69
2022/09/26 10:05:43;;;;;;;4.17;3.17;;;16.70;99.90;;;;;;5017101;28;20219;-70
2022/09/26 10:08:21;;;;;;;9.87;3.30;;;16.60;99.90;;;;;;5020135;28;20186;-68
2022/09/26 10:11:11;;;;;;;6.70;2.87;;;16.50;99.90;;;;;;5019337;28;20208;-68
2022/09/26 10:13:43;;;;;;;4.27;2.73;;;16.50;99.90;;;;;;5031322;28;20268;-69
2022/09/26 10:16:14;;;;;;;6.03;3.23;;;16.40;99.90;;;;;;5043464;28;20204;-70
2022/09/26 10:18:54;;;;;;;5.57;3.20;;;16.30;99.90;;;;;;5041293;28;20698;-69
2022/09/26 10:21:26;;;;;;;8.87;3.80;;;16.30;99.90;;;;;;5040888;28;20619;-69
2022/09/26 10:23:55;;;;;;;6.43;3.50;;;16.30;99.90;;;;;;5040368;28;20256;-69
2022/09/26 10:26:38;;;;;;;3.87;2.83;;;16.20;99.90;;;;;;5024078;28;20642;-69
2022/09/26 10:29:33;;;;;;;5.70;3.70;;;16.20;99.90;;;;;;5039142;28;20193;-68
2022/09/26 10:32:01;;;;;;;5.73;3.17;;;16.10;99.90;;;;;;5041229;28;20173;-70
2022/09/26 10:34:31;;;;;;;6.53;4.10;;;16.00;99.90;;;;;;5040532;28;20638;-69
2022/09/26 10:37:18;;;;;;;7.87;4.20;;;16.00;99.90;;;;;;5039932;28;20268;-70
2022/09/26 10:42:45;;;;;;;6.67;3.53;;;15.90;99.90;;;;;;5039578;28;20692;-70
2022/09/26 10:45:26;;;;;;;6.50;3.67;;;15.80;99.90;;;;;;5039844;28;20237;-69
2022/09/26 10:47:55;;;;;;;5.03;3.40;;;15.80;99.90;;;;;;5039258;28;20165;-69
2022/09/26 10:50:28;;;;;;;6.80;3.73;;;15.80;99.90;;;;;;5039493;28;20622;-69
2022/09/26 10:53:04;;;;;;;5.70;3.70;;;15.80;99.90;;;;;;5039087;28;20181;-69
2022/09/26 10:55:39;;;;;;;8.13;4.03;;;15.80;99.90;;;;;;5038548;28;20260;-67
2022/09/26 10:58:13;;;;;;;6.63;3.97;;;15.80;99.90;;;;;;5040292;28;20654;-68
2022/09/26 11:00:43;;;;;;;8.73;3.77;;;15.70;99.90;;;;;;5040683;28;20217;-68
2022/09/26 11:03:26;;;;;;;8.87;4.27;;;15.70;99.90;;;;;;5040947;28;20178;-68
2022/09/26 11:05:56;;;;;;;7.47;4.13;;;15.70;99.90;;;;;;5040959;28;20255;-70
2022/09/26 11:08:33;;;;;;;5.93;4.10;;;15.60;99.90;;;;;;5040384;28;20189;-70
2022/09/26 11:11:11;;;;;;;7.40;3.93;;;15.60;99.90;;;;;;5039823;28;20183;-71
2022/09/26 11:14:18;;;;;;;8.60;4.00;;;15.50;99.90;;;;;;5038996;28;20224;-70
2022/09/26 11:16:48;;;;;;;10.57;4.10;;;15.60;99.90;;;;;;5040115;28;20169;-69
2022/09/26 11:19:21;;;;;;;11.13;4.27;;;15.60;99.90;;;;;;5047221;28;20227;-71
2022/09/26 11:22:00;;;;;;;7.40;4.17;;;15.50;99.90;;;;;;5056504;28;20212;-70
2022/09/26 11:24:50;;;;;;;4.63;4.00;;;15.50;99.90;;;;;;5047689;28;20173;-68
2022/09/26 11:27:30;;;;;;;6.83;3.83;;;15.40;99.90;;;;;;5038751;28;20177;-70
2022/09/26 11:30:13;;;;;;;7.03;3.87;;;15.40;99.90;;;;;;5040374;28;20165;-69
2022/09/26 11:32:44;;;;;;;9.50;4.23;;;15.30;99.90;;;;;;5039404;28;20196;-67
2022/09/26 11:35:33;;;;;;;7.30;3.93;;;15.30;99.90;;;;;;5038557;28;20673;-68
2022/09/26 11:38:27;;;;;;;6.50;4.13;;;15.20;99.90;;;;;;5020437;28;20182;-68
2022/09/26 11:41:07;;;;;;;10.33;5.00;;;15.10;99.90;;;;;;5019726;28;20225;-69
2022/09/26 11:44:20;;;;;;;7.73;4.53;;;15.00;99.90;;;;;;5019630;28;20202;-69
2022/09/26 11:47:05;;;;;;;7.13;4.13;;;15.00;99.90;;;;;;4989984;28;20209;-69
2022/09/26 11:49:58;;;;;;;6.60;4.53;;;15.00;99.90;;;;;;5020443;28;20187;-70
2022/09/26 11:52:52;;;;;;;10.53;5.13;;;15.00;99.90;;;;;;5020276;28;20244;-71
2022/09/26 11:55:49;;;;;;;8.90;5.60;;;15.00;99.90;;;;;;5015519;28;20182;-70
2022/09/26 11:58:19;;;;;;;8.37;4.57;;;14.90;99.90;;;;;;5035592;28;20174;-70
2022/09/26 12:01:23;;;;;;;8.80;4.47;;;14.90;99.90;;;;;;5034218;28;20227;-69
2022/09/26 12:03:54;;;;;;;5.67;4.53;;;14.90;99.90;;;;;;5035296;28;20189;-69
2022/09/26 12:06:40;;;;;;;5.93;4.50;;;14.90;99.90;;;;;;5035607;28;20181;-69
2022/09/26 12:09:50;;;;;;;5.90;4.23;;;14.80;99.90;;;;;;5035418;28;20188;-70
2022/09/26 12:12:31;;;;;;;8.17;4.60;;;14.80;99.90;;;;;;4974365;28;20282;-69
2022/09/26 12:15:20;;;;;;;7.37;4.60;;;14.80;99.90;;;;;;5028901;28;20546;-69
2022/09/26 12:17:58;;;;;;;10.67;4.50;;;14.70;99.90;;;;;;5016002;28;20190;-69
2022/09/26 12:20:54;;;;;;;8.43;4.60;;;14.70;99.90;;;;;;5015432;28;20233;-69
2022/09/26 12:23:49;;;;;;;12.57;5.03;;;14.70;99.90;;;;;;4987769;28;20277;-69
2022/09/26 12:26:50;;;;;;;10.17;5.50;;;14.60;99.90;;;;;;5026423;28;20177;-70
2022/09/26 12:29:24;;;;;;;8.70;5.03;;;14.60;99.90;;;;;;5034940;28;20184;-71
2022/09/26 12:32:30;;;;;;;8.70;4.73;;;14.50;99.90;;;;;;5034877;28;20543;-71
2022/09/26 12:35:35;;;;;;;6.80;5.53;;;14.50;99.90;;;;;;5004539;28;20192;-69
2022/09/26 12:38:24;;;;;;;8.23;5.40;;;14.40;99.90;;;;;;4966122;28;20192;-69
2022/09/26 12:41:24;;;;;;;10.10;5.33;;;14.40;99.90;;;;;;5015176;28;20301;-69
2022/09/26 12:44:18;;;;;;;9.43;5.30;;;14.30;99.90;;;;;;5015048;28;20202;-69
2022/09/26 12:47:26;;;;;;;8.80;5.10;;;14.30;99.90;;;;;;5031638;28;20661;-69
2022/09/26 12:49:57;;;;;;;7.63;5.70;;;14.20;99.90;;;;;;5034442;28;20187;-70
2022/09/26 12:52:51;;;;;;;6.90;5.13;;;14.10;99.90;;;;;;5035071;28;20638;-70
2022/09/26 12:55:26;;;;;;;9.00;5.30;;;14.10;99.90;;;;;;5034346;28;20216;-69
2022/09/26 12:58:05;;;;;;;11.60;5.30;;;14.10;99.90;;;;;;5033979;28;20647;-70
2022/09/26 13:00:46;;;;;;;6.87;4.77;;;14.10;99.90;;;;;;5034000;28;20223;-70
2022/09/26 13:03:41;;;;;;;8.97;6.07;;;14.00;99.90;;;;;;5034545;28;20565;-69
2022/09/26 13:06:17;;;;;;;8.20;5.10;;;14.00;99.90;;;;;;5034164;28;20188;-70
2022/09/26 13:09:03;;;;;;;8.37;5.10;;;13.90;99.90;;;;;;5034679;28;20169;-69
2022/09/26 13:11:30;;;;;;;6.10;5.23;;;13.80;99.90;;;;;;5033875;28;20250;-70
2022/09/26 13:14:26;;;;;;;10.20;5.30;;;13.80;99.90;;;;;;5034246;28;20595;-70
2022/09/26 13:16:54;;;;;;;10.57;5.40;;;13.80;99.90;;;;;;5033789;28;20177;-69
2022/09/26 13:19:50;;;;;;;8.57;5.50;;;13.80;99.90;;;;;;5033846;28;20231;-70
2022/09/26 13:22:31;;;;;;;7.97;4.87;;;13.80;99.90;;;;;;5034034;28;20180;-69
2022/09/26 13:25:21;;;;;;;8.80;5.03;;;13.70;99.90;;;;;;5033471;28;20184;-69
2022/09/26 13:28:12;;;;;;;9.77;5.37;;;13.70;99.90;;;;;;5033753;28;20181;-70
2022/09/26 13:30:42;;;;;;;9.87;4.70;;;13.70;99.90;;;;;;5033873;28;20214;-70
2022/09/26 13:33:39;;;;;;;8.43;5.20;;;13.60;99.90;;;;;;5033357;28;20181;-71
2022/09/26 13:36:08;;;;;;;9.87;5.30;;;13.60;99.90;;;;;;5033814;28;20323;-70
2022/09/26 13:38:50;;;;;;;8.00;5.00;;;13.60;99.90;;;;;;5033713;28;20195;-70
2022/09/26 13:42:01;;;;;;;11.20;5.43;;;13.60;99.90;;;;;;5033892;28;20299;-70
2022/09/26 13:44:54;;;;;;;7.60;5.07;;;13.50;99.90;;;;;;4972719;28;20245;-69
2022/09/26 13:48:05;;;;;;;9.20;4.90;;;13.50;99.90;;;;;;5033204;28;20173;-70